sensor_id;sensor_type;location;lat;lon;timestamp;temperature;humidity
23629;DHT22;11991;57.150;-2.134;2023-04-03T00:01:12;5.60;99.90
23629;DHT22;11991;57.150;-2.134;2023-04-03T00:03:40;5.60;99.90
23629;DHT22;11991;57.150;-2.134;2023-04-03T00:06:09;5.50;99.90
23629;DHT22;11991;57.150;-2.134;2023-04-03T00:08:38;5.50;99.90
23629;DHT22;11991;57.150;-2.134;2023-04-03T00:11:06;5.50;99.90
23629;DHT22;11991;57.150;-2.134;2023-04-03T00:13:34;5.50;99.90
23629;DHT22;11991;57.150;-2.134;2023-04-03T00:16:01;5.50;99.90
23629;DHT22;11991;57.150;-2.134;2023-04-03T00:18:30;5.50;99.90
23629;DHT22;11991;57.150;-2.134;2023-04-03T00:20:57;5.50;99.90
23629;DHT22;11991;57.150;-2.134;2023-04-03T00:23:24;5.50;99.90
23629;DHT22;11991;57.150;-2.134;2023-04-03T00:25:52;5.50;99.90
23629;DHT22;11991;57.150;-2.134;2023-04-03T00:28:20;5.50;99.90
23629;DHT22;11991;57.150;-2.134;2023-04-03T00:30:51;5.50;99.90
23629;DHT22;11991;57.150;-2.134;2023-04-03T00:33:18;5.50;99.90
23629;DHT22;11991;57.150;-2.134;2023-04-03T00:35:49;5.50;99.90
23629;DHT22;11991;57.150;-2.134;2023-04-03T00:38:17;5.50;99.90
23629;DHT22;11991;57.150;-2.134;2023-04-03T00:40:47;5.50;99.90
23629;DHT22;11991;57.150;-2.134;2023-04-03T00:43:17;5.50;99.90
23629;DHT22;11991;57.150;-2.134;2023-04-03T00:45:52;5.50;99.90
23629;DHT22;11991;57.150;-2.134;2023-04-03T00:48:24;5.40;99.90
23629;DHT22;11991;57.150;-2.134;2023-04-03T00:50:52;5.40;99.90
23629;DHT22;11991;57.150;-2.134;2023-04-03T00:53:27;5.40;99.90
23629;DHT22;11991;57.150;-2.134;2023-04-03T00:55:56;5.40;99.90
23629;DHT22;11991;57.150;-2.134;2023-04-03T00:58:31;5.40;99.90
23629;DHT22;11991;57.150;-2.134;2023-04-03T01:01:03;5.30;99.90
23629;DHT22;11991;57.150;-2.134;2023-04-03T01:03:32;5.30;99.90
23629;DHT22;11991;57.150;-2.134;2023-04-03T01:06:02;5.30;99.90
23629;DHT22;11991;57.150;-2.134;2023-04-03T01:08:30;5.30;99.90
23629;DHT22;11991;57.150;-2.134;2023-04-03T01:10:57;5.30;99.90
23629;DHT22;11991;57.150;-2.134;2023-04-03T01:13:29;5.30;99.90
23629;DHT22;11991;57.150;-2.134;2023-04-03T01:16:00;5.30;99.90
23629;DHT22;11991;57.150;-2.134;2023-04-03T01:18:27;5.20;99.90
23629;DHT22;11991;57.150;-2.134;2023-04-03T01:21:16;5.20;99.90
23629;DHT22;11991;57.150;-2.134;2023-04-03T01:26:24;5.20;99.90
23629;DHT22;11991;57.150;-2.134;2023-04-03T01:28:54;5.20;99.90
23629;DHT22;11991;57.150;-2.134;2023-04-03T01:31:27;5.20;99.90
23629;DHT22;11991;57.150;-2.134;2023-04-03T01:33:55;5.10;99.90
23629;DHT22;11991;57.150;-2.134;2023-04-03T01:36:26;5.10;99.90
23629;DHT22;11991;57.150;-2.134;2023-04-03T01:38:54;5.10;99.90
23629;DHT22;11991;57.150;-2.134;2023-04-03T01:41:22;5.10;99.90
23629;DHT22;11991;57.150;-2.134;2023-04-03T01:43:53;5.00;99.90
23629;DHT22;11991;57.150;-2.134;2023-04-03T01:46:21;5.00;99.90
23629;DHT22;11991;57.150;-2.134;2023-04-03T01:48:48;5.00;99.90
23629;DHT22;11991;57.150;-2.134;2023-04-03T01:51:16;5.00;99.90
23629;DHT22;11991;57.150;-2.134;2023-04-03T01:53:43;5.00;99.90
23629;DHT22;11991;57.150;-2.134;2023-04-03T01:56:10;5.00;99.90
23629;DHT22;11991;57.150;-2.134;2023-04-03T01:58:38;5.00;99.90
23629;DHT22;11991;57.150;-2.134;2023-04-03T02:01:06;5.00;99.90
23629;DHT22;11991;57.150;-2.134;2023-04-03T02:03:33;5.00;99.90
23629;DHT22;11991;57.150;-2.134;2023-04-03T02:06:00;5.10;99.90
23629;DHT22;11991;57.150;-2.134;2023-04-03T02:08:28;5.10;99.90
23629;DHT22;11991;57.150;-2.134;2023-04-03T02:10:55;5.20;99.90
23629;DHT22;11991;57.150;-2.134;2023-04-03T02:13:22;5.20;99.90
23629;DHT22;11991;57.150;-2.134;2023-04-03T02:15:49;5.20;99.90
23629;DHT22;11991;57.150;-2.134;2023-04-03T02:18:17;5.20;99.90
23629;DHT22;11991;57.150;-2.134;2023-04-03T02:20:46;5.30;99.90
23629;DHT22;11991;57.150;-2.134;2023-04-03T02:23:13;5.30;99.90
23629;DHT22;11991;57.150;-2.134;2023-04-03T02:25:40;5.30;99.90
23629;DHT22;11991;57.150;-2.134;2023-04-03T02:28:07;5.30;99.90
23629;DHT22;11991;57.150;-2.134;2023-04-03T02:30:34;5.30;99.90
23629;DHT22;11991;57.150;-2.134;2023-04-03T02:33:03;5.30;99.90
23629;DHT22;11991;57.150;-2.134;2023-04-03T02:35:31;5.30;99.90
23629;DHT22;11991;57.150;-2.134;2023-04-03T02:37:58;5.30;99.90
23629;DHT22;11991;57.150;-2.134;2023-04-03T02:40:26;5.30;99.90
23629;DHT22;11991;57.150;-2.134;2023-04-03T02:42:53;5.30;99.90
23629;DHT22;11991;57.150;-2.134;2023-04-03T02:45:22;5.30;99.90
23629;DHT22;11991;57.150;-2.134;2023-04-03T02:47:50;5.30;99.90
23629;DHT22;11991;57.150;-2.134;2023-04-03T02:50:17;5.30;99.90
23629;DHT22;11991;57.150;-2.134;2023-04-03T02:52:44;5.40;99.90
23629;DHT22;11991;57.150;-2.134;2023-04-03T02:55:14;5.40;99.90
23629;DHT22;11991;57.150;-2.134;2023-04-03T02:57:44;5.40;99.90
23629;DHT22;11991;57.150;-2.134;2023-04-03T03:00:12;5.40;99.90
23629;DHT22;11991;57.150;-2.134;2023-04-03T03:02:41;5.40;99.90
23629;DHT22;11991;57.150;-2.134;2023-04-03T03:05:08;5.40;99.90
23629;DHT22;11991;57.150;-2.134;2023-04-03T03:07:35;5.40;99.90
23629;DHT22;11991;57.150;-2.134;2023-04-03T03:10:03;5.50;99.90
23629;DHT22;11991;57.150;-2.134;2023-04-03T03:12:30;5.50;99.90
23629;DHT22;11991;57.150;-2.134;2023-04-03T03:14:59;5.50;99.90
23629;DHT22;11991;57.150;-2.134;2023-04-03T03:17:26;5.50;99.90
23629;DHT22;11991;57.150;-2.134;2023-04-03T03:19:54;5.50;99.90
23629;DHT22;11991;57.150;-2.134;2023-04-03T03:22:21;5.60;99.90
23629;DHT22;11991;57.150;-2.134;2023-04-03T03:24:48;5.60;99.90
23629;DHT22;11991;57.150;-2.134;2023-04-03T03:27:15;5.60;99.90
23629;DHT22;11991;57.150;-2.134;2023-04-03T03:29:43;5.60;99.90
23629;DHT22;11991;57.150;-2.134;2023-04-03T03:32:11;5.60;99.90
23629;DHT22;11991;57.150;-2.134;2023-04-03T03:34:39;5.70;99.90
23629;DHT22;11991;57.150;-2.134;2023-04-03T03:37:06;5.70;99.90
23629;DHT22;11991;57.150;-2.134;2023-04-03T03:39:33;5.70;99.90
23629;DHT22;11991;57.150;-2.134;2023-04-03T03:42:00;5.70;99.90
23629;DHT22;11991;57.150;-2.134;2023-04-03T03:44:27;5.70;99.90
23629;DHT22;11991;57.150;-2.134;2023-04-03T03:46:56;5.70;99.90
23629;DHT22;11991;57.150;-2.134;2023-04-03T03:49:23;5.70;99.90
23629;DHT22;11991;57.150;-2.134;2023-04-03T03:51:50;5.70;99.90
23629;DHT22;11991;57.150;-2.134;2023-04-03T03:54:18;5.70;99.90
23629;DHT22;11991;57.150;-2.134;2023-04-03T03:56:46;5.70;99.90
23629;DHT22;11991;57.150;-2.134;2023-04-03T03:59:14;5.70;99.90
23629;DHT22;11991;57.150;-2.134;2023-04-03T04:01:41;5.70;99.90
23629;DHT22;11991;57.150;-2.134;2023-04-03T04:04:08;5.70;99.90
23629;DHT22;11991;57.150;-2.134;2023-04-03T04:06:36;5.70;99.90
23629;DHT22;11991;57.150;-2.134;2023-04-03T04:09:06;5.80;99.90
23629;DHT22;11991;57.150;-2.134;2023-04-03T04:11:34;5.70;99.90
23629;DHT22;11991;57.150;-2.134;2023-04-03T04:14:01;5.80;99.90
23629;DHT22;11991;57.150;-2.134;2023-04-03T04:16:29;5.80;99.90
23629;DHT22;11991;57.150;-2.134;2023-04-03T04:19:02;5.80;99.90
23629;DHT22;11991;57.150;-2.134;2023-04-03T04:21:31;5.80;99.90
23629;DHT22;11991;57.150;-2.134;2023-04-03T04:23:59;5.80;99.90
23629;DHT22;11991;57.150;-2.134;2023-04-03T04:26:26;5.80;99.90
23629;DHT22;11991;57.150;-2.134;2023-04-03T04:28:54;5.80;99.90
23629;DHT22;11991;57.150;-2.134;2023-04-03T04:31:21;5.80;99.90
23629;DHT22;11991;57.150;-2.134;2023-04-03T04:33:49;5.80;99.90
23629;DHT22;11991;57.150;-2.134;2023-04-03T04:36:17;5.80;99.90
23629;DHT22;11991;57.150;-2.134;2023-04-03T04:38:45;5.80;99.90
23629;DHT22;11991;57.150;-2.134;2023-04-03T04:41:14;5.80;99.90
23629;DHT22;11991;57.150;-2.134;2023-04-03T04:43:42;5.80;99.90
23629;DHT22;11991;57.150;-2.134;2023-04-03T04:46:10;5.80;99.90
23629;DHT22;11991;57.150;-2.134;2023-04-03T04:48:46;5.80;99.90
23629;DHT22;11991;57.150;-2.134;2023-04-03T04:51:14;5.80;99.90
23629;DHT22;11991;57.150;-2.134;2023-04-03T04:53:41;5.80;99.90
23629;DHT22;11991;57.150;-2.134;2023-04-03T04:56:12;5.80;99.90
23629;DHT22;11991;57.150;-2.134;2023-04-03T04:58:39;5.80;99.90
23629;DHT22;11991;57.150;-2.134;2023-04-03T05:01:09;5.80;99.90
23629;DHT22;11991;57.150;-2.134;2023-04-03T05:03:57;5.80;99.90
23629;DHT22;11991;57.150;-2.134;2023-04-03T05:06:25;5.80;99.90
23629;DHT22;11991;57.150;-2.134;2023-04-03T05:08:54;5.80;99.90
23629;DHT22;11991;57.150;-2.134;2023-04-03T05:11:22;5.70;99.90
23629;DHT22;11991;57.150;-2.134;2023-04-03T05:13:52;5.70;99.90
23629;DHT22;11991;57.150;-2.134;2023-04-03T05:16:21;5.70;99.90
23629;DHT22;11991;57.150;-2.134;2023-04-03T05:18:48;5.70;99.90
23629;DHT22;11991;57.150;-2.134;2023-04-03T05:21:19;5.70;99.90
23629;DHT22;11991;57.150;-2.134;2023-04-03T05:23:47;5.60;99.90
23629;DHT22;11991;57.150;-2.134;2023-04-03T05:26:14;5.60;99.90
23629;DHT22;11991;57.150;-2.134;2023-04-03T05:28:43;5.60;99.90
23629;DHT22;11991;57.150;-2.134;2023-04-03T05:31:11;5.70;99.90
23629;DHT22;11991;57.150;-2.134;2023-04-03T05:33:38;5.60;99.90
23629;DHT22;11991;57.150;-2.134;2023-04-03T05:36:08;5.60;99.90
23629;DHT22;11991;57.150;-2.134;2023-04-03T05:38:42;5.60;99.90
23629;DHT22;11991;57.150;-2.134;2023-04-03T05:41:11;5.60;99.90
23629;DHT22;11991;57.150;-2.134;2023-04-03T05:43:38;5.70;99.90
23629;DHT22;11991;57.150;-2.134;2023-04-03T05:46:17;5.70;99.90
23629;DHT22;11991;57.150;-2.134;2023-04-03T05:48:48;5.70;99.90
23629;DHT22;11991;57.150;-2.134;2023-04-03T05:51:22;5.70;99.90
23629;DHT22;11991;57.150;-2.134;2023-04-03T05:53:56;5.70;99.90
23629;DHT22;11991;57.150;-2.134;2023-04-03T05:56:28;5.70;99.90
23629;DHT22;11991;57.150;-2.134;2023-04-03T05:58:55;5.70;99.90
23629;DHT22;11991;57.150;-2.134;2023-04-03T06:01:23;5.70;99.90
23629;DHT22;11991;57.150;-2.134;2023-04-03T06:03:50;5.70;99.90
23629;DHT22;11991;57.150;-2.134;2023-04-03T06:06:18;5.70;99.90
23629;DHT22;11991;57.150;-2.134;2023-04-03T06:08:45;5.70;99.90
23629;DHT22;11991;57.150;-2.134;2023-04-03T06:11:13;5.80;99.90
23629;DHT22;11991;57.150;-2.134;2023-04-03T06:13:40;5.80;99.90
23629;DHT22;11991;57.150;-2.134;2023-04-03T06:16:12;5.80;99.90
23629;DHT22;11991;57.150;-2.134;2023-04-03T06:18:42;5.80;99.90
23629;DHT22;11991;57.150;-2.134;2023-04-03T06:21:10;5.80;99.90
23629;DHT22;11991;57.150;-2.134;2023-04-03T06:23:37;5.90;99.90
23629;DHT22;11991;57.150;-2.134;2023-04-03T06:26:05;5.90;99.90
23629;DHT22;11991;57.150;-2.134;2023-04-03T06:28:32;5.90;99.90
23629;DHT22;11991;57.150;-2.134;2023-04-03T06:30:59;5.90;99.90
23629;DHT22;11991;57.150;-2.134;2023-04-03T06:33:27;5.90;99.90
23629;DHT22;11991;57.150;-2.134;2023-04-03T06:35:58;5.90;99.90
23629;DHT22;11991;57.150;-2.134;2023-04-03T06:38:25;5.90;99.90
23629;DHT22;11991;57.150;-2.134;2023-04-03T06:40:53;5.90;99.90
23629;DHT22;11991;57.150;-2.134;2023-04-03T06:43:20;6.00;99.90
23629;DHT22;11991;57.150;-2.134;2023-04-03T06:45:50;5.90;99.90
23629;DHT22;11991;57.150;-2.134;2023-04-03T06:48:17;5.90;99.90
23629;DHT22;11991;57.150;-2.134;2023-04-03T06:50:45;5.90;99.90
23629;DHT22;11991;57.150;-2.134;2023-04-03T06:53:12;5.90;99.90
23629;DHT22;11991;57.150;-2.134;2023-04-03T06:55:39;6.00;99.90
23629;DHT22;11991;57.150;-2.134;2023-04-03T06:58:07;6.00;99.90
23629;DHT22;11991;57.150;-2.134;2023-04-03T07:00:34;6.00;99.90
23629;DHT22;11991;57.150;-2.134;2023-04-03T07:03:01;6.00;99.90
23629;DHT22;11991;57.150;-2.134;2023-04-03T07:05:29;6.00;99.90
23629;DHT22;11991;57.150;-2.134;2023-04-03T07:07:57;6.00;99.90
23629;DHT22;11991;57.150;-2.134;2023-04-03T07:10:24;6.00;99.90
23629;DHT22;11991;57.150;-2.134;2023-04-03T07:12:51;6.00;99.90
23629;DHT22;11991;57.150;-2.134;2023-04-03T07:15:19;6.00;99.90
23629;DHT22;11991;57.150;-2.134;2023-04-03T07:17:46;6.00;99.90
23629;DHT22;11991;57.150;-2.134;2023-04-03T07:20:13;6.10;99.90
23629;DHT22;11991;57.150;-2.134;2023-04-03T07:22:41;6.10;99.90
23629;DHT22;11991;57.150;-2.134;2023-04-03T07:25:09;6.10;99.90
23629;DHT22;11991;57.150;-2.134;2023-04-03T07:27:37;6.10;99.90
23629;DHT22;11991;57.150;-2.134;2023-04-03T07:30:05;6.10;99.90
23629;DHT22;11991;57.150;-2.134;2023-04-03T07:32:33;6.10;99.90
23629;DHT22;11991;57.150;-2.134;2023-04-03T07:35:00;6.10;99.90
23629;DHT22;11991;57.150;-2.134;2023-04-03T07:37:29;6.10;99.90
23629;DHT22;11991;57.150;-2.134;2023-04-03T07:39:56;6.10;99.90
23629;DHT22;11991;57.150;-2.134;2023-04-03T07:42:25;6.10;99.90
23629;DHT22;11991;57.150;-2.134;2023-04-03T07:44:56;6.10;99.90
23629;DHT22;11991;57.150;-2.134;2023-04-03T07:47:23;6.10;99.90
23629;DHT22;11991;57.150;-2.134;2023-04-03T07:49:50;6.10;99.90
23629;DHT22;11991;57.150;-2.134;2023-04-03T07:52:17;6.10;99.90
23629;DHT22;11991;57.150;-2.134;2023-04-03T07:54:44;6.20;99.90
23629;DHT22;11991;57.150;-2.134;2023-04-03T07:57:12;6.10;99.90
23629;DHT22;11991;57.150;-2.134;2023-04-03T07:59:39;6.20;99.90
23629;DHT22;11991;57.150;-2.134;2023-04-03T08:02:09;6.20;99.90
23629;DHT22;11991;57.150;-2.134;2023-04-03T08:04:37;6.20;99.90
23629;DHT22;11991;57.150;-2.134;2023-04-03T08:07:04;6.30;99.90
23629;DHT22;11991;57.150;-2.134;2023-04-03T08:09:32;6.30;99.90
23629;DHT22;11991;57.150;-2.134;2023-04-03T08:11:59;6.40;99.90
23629;DHT22;11991;57.150;-2.134;2023-04-03T08:14:26;6.50;99.90
23629;DHT22;11991;57.150;-2.134;2023-04-03T08:16:54;6.50;99.90
23629;DHT22;11991;57.150;-2.134;2023-04-03T08:19:21;6.60;99.90
23629;DHT22;11991;57.150;-2.134;2023-04-03T08:21:54;6.60;99.90
23629;DHT22;11991;57.150;-2.134;2023-04-03T08:24:22;6.60;99.90
23629;DHT22;11991;57.150;-2.134;2023-04-03T08:26:49;6.70;99.90
23629;DHT22;11991;57.150;-2.134;2023-04-03T08:29:16;6.60;99.90
23629;DHT22;11991;57.150;-2.134;2023-04-03T08:31:43;6.70;99.90
23629;DHT22;11991;57.150;-2.134;2023-04-03T08:34:11;6.70;99.90
23629;DHT22;11991;57.150;-2.134;2023-04-03T08:36:40;6.80;99.90
23629;DHT22;11991;57.150;-2.134;2023-04-03T08:39:07;6.80;99.90
23629;DHT22;11991;57.150;-2.134;2023-04-03T08:41:35;6.80;99.90
23629;DHT22;11991;57.150;-2.134;2023-04-03T08:52:18;6.90;99.90
23629;DHT22;11991;57.150;-2.134;2023-04-03T08:54:57;6.90;99.90
23629;DHT22;11991;57.150;-2.134;2023-04-03T08:57:34;6.90;99.90
23629;DHT22;11991;57.150;-2.134;2023-04-03T09:02:52;6.90;99.90
23629;DHT22;11991;57.150;-2.134;2023-04-03T09:08:27;6.90;99.90
23629;DHT22;11991;57.150;-2.134;2023-04-03T09:11:18;6.80;99.90
23629;DHT22;11991;57.150;-2.134;2023-04-03T09:20:19;6.90;99.90
23629;DHT22;11991;57.150;-2.134;2023-04-03T09:22:48;6.90;99.90
23629;DHT22;11991;57.150;-2.134;2023-04-03T09:25:25;7.00;99.90
23629;DHT22;11991;57.150;-2.134;2023-04-03T09:27:56;7.10;99.90
23629;DHT22;11991;57.150;-2.134;2023-04-03T09:30:26;7.10;99.90
23629;DHT22;11991;57.150;-2.134;2023-04-03T09:32:55;7.10;99.90
23629;DHT22;11991;57.150;-2.134;2023-04-03T09:35:28;7.10;99.90
23629;DHT22;11991;57.150;-2.134;2023-04-03T09:41:17;7.10;99.90
23629;DHT22;11991;57.150;-2.134;2023-04-03T09:43:37;7.10;99.90
23629;DHT22;11991;57.150;-2.134;2023-04-03T09:46:23;7.00;99.90
23629;DHT22;11991;57.150;-2.134;2023-04-03T09:49:02;7.00;99.90
23629;DHT22;11991;57.150;-2.134;2023-04-03T09:51:36;7.00;99.90
23629;DHT22;11991;57.150;-2.134;2023-04-03T09:56:58;7.00;99.90
23629;DHT22;11991;57.150;-2.134;2023-04-03T09:59:28;7.10;99.90
23629;DHT22;11991;57.150;-2.134;2023-04-03T10:02:03;7.10;99.90
23629;DHT22;11991;57.150;-2.134;2023-04-03T10:04:40;7.10;99.90
23629;DHT22;11991;57.150;-2.134;2023-04-03T10:07:30;7.20;99.90
23629;DHT22;11991;57.150;-2.134;2023-04-03T10:09:59;7.20;99.90
23629;DHT22;11991;57.150;-2.134;2023-04-03T10:12:29;7.20;99.90
23629;DHT22;11991;57.150;-2.134;2023-04-03T10:14:58;7.30;99.90
23629;DHT22;11991;57.150;-2.134;2023-04-03T10:20:33;7.30;99.90
23629;DHT22;11991;57.150;-2.134;2023-04-03T10:23:17;7.30;99.90
23629;DHT22;11991;57.150;-2.134;2023-04-03T10:34:23;7.10;99.90
23629;DHT22;11991;57.150;-2.134;2023-04-03T10:42:50;7.00;99.90
23629;DHT22;11991;57.150;-2.134;2023-04-03T10:54:49;6.90;99.90
23629;DHT22;11991;57.150;-2.134;2023-04-03T10:59:50;7.10;99.90
23629;DHT22;11991;57.150;-2.134;2023-04-03T11:02:28;7.20;99.90
23629;DHT22;11991;57.150;-2.134;2023-04-03T11:05:06;7.30;99.90
23629;DHT22;11991;57.150;-2.134;2023-04-03T11:07:43;7.40;99.90
23629;DHT22;11991;57.150;-2.134;2023-04-03T11:10:39;7.50;99.90
23629;DHT22;11991;57.150;-2.134;2023-04-03T11:13:19;7.50;99.90
23629;DHT22;11991;57.150;-2.134;2023-04-03T11:15:51;7.50;99.90
23629;DHT22;11991;57.150;-2.134;2023-04-03T11:18:31;7.40;99.90
23629;DHT22;11991;57.150;-2.134;2023-04-03T11:21:12;7.30;99.90
23629;DHT22;11991;57.150;-2.134;2023-04-03T11:23:41;7.20;99.90
23629;DHT22;11991;57.150;-2.134;2023-04-03T11:26:20;7.20;99.90
23629;DHT22;11991;57.150;-2.134;2023-04-03T11:28:53;7.20;99.90
23629;DHT22;11991;57.150;-2.134;2023-04-03T11:36:54;7.40;99.90
23629;DHT22;11991;57.150;-2.134;2023-04-03T11:39:33;7.50;99.90
23629;DHT22;11991;57.150;-2.134;2023-04-03T11:42:33;7.60;99.90
23629;DHT22;11991;57.150;-2.134;2023-04-03T12:26:47;7.90;99.90
23629;DHT22;11991;57.150;-2.134;2023-04-03T12:34:55;8.10;99.90
23629;DHT22;11991;57.150;-2.134;2023-04-03T12:40:53;8.20;99.90
23629;DHT22;11991;57.150;-2.134;2023-04-03T12:43:48;8.20;99.90
23629;DHT22;11991;57.150;-2.134;2023-04-03T12:46:19;8.30;99.90
23629;DHT22;11991;57.150;-2.134;2023-04-03T12:48:51;8.40;99.90
23629;DHT22;11991;57.150;-2.134;2023-04-03T12:54:12;8.40;99.90
23629;DHT22;11991;57.150;-2.134;2023-04-03T12:56:40;8.50;99.90
23629;DHT22;11991;57.150;-2.134;2023-04-03T12:59:22;8.40;99.90
23629;DHT22;11991;57.150;-2.134;2023-04-03T13:01:58;8.30;99.90
23629;DHT22;11991;57.150;-2.134;2023-04-03T13:04:31;8.40;99.90
23629;DHT22;11991;57.150;-2.134;2023-04-03T13:06:59;8.40;99.90
23629;DHT22;11991;57.150;-2.134;2023-04-03T13:09:29;8.50;99.90
23629;DHT22;11991;57.150;-2.134;2023-04-03T13:12:01;8.50;99.90
23629;DHT22;11991;57.150;-2.134;2023-04-03T13:14:30;8.50;99.90
23629;DHT22;11991;57.150;-2.134;2023-04-03T13:19:39;8.50;99.90
23629;DHT22;11991;57.150;-2.134;2023-04-03T13:24:48;8.50;99.90
23629;DHT22;11991;57.150;-2.134;2023-04-03T13:27:17;8.50;99.90
23629;DHT22;11991;57.150;-2.134;2023-04-03T13:29:50;8.50;99.90
23629;DHT22;11991;57.150;-2.134;2023-04-03T13:32:26;8.50;99.90
23629;DHT22;11991;57.150;-2.134;2023-04-03T13:34:54;8.40;99.90
23629;DHT22;11991;57.150;-2.134;2023-04-03T13:37:29;8.40;99.90
23629;DHT22;11991;57.150;-2.134;2023-04-03T13:42:36;8.40;99.90
23629;DHT22;11991;57.150;-2.134;2023-04-03T13:47:48;8.60;99.90
23629;DHT22;11991;57.150;-2.134;2023-04-03T13:53:08;8.70;99.90
23629;DHT22;11991;57.150;-2.134;2023-04-03T13:58:27;8.80;99.90
23629;DHT22;11991;57.150;-2.134;2023-04-03T14:01:21;8.80;99.90
23629;DHT22;11991;57.150;-2.134;2023-04-03T14:03:57;8.80;99.90
23629;DHT22;11991;57.150;-2.134;2023-04-03T14:06:24;8.80;99.90
23629;DHT22;11991;57.150;-2.134;2023-04-03T14:08:52;8.90;99.90
23629;DHT22;11991;57.150;-2.134;2023-04-03T14:11:22;8.90;99.90
23629;DHT22;11991;57.150;-2.134;2023-04-03T14:13:51;8.90;99.90
23629;DHT22;11991;57.150;-2.134;2023-04-03T14:16:22;9.00;99.90
23629;DHT22;11991;57.150;-2.134;2023-04-03T14:18:50;9.00;99.90
23629;DHT22;11991;57.150;-2.134;2023-04-03T14:21:19;9.00;99.90
23629;DHT22;11991;57.150;-2.134;2023-04-03T14:23:47;9.10;99.90
23629;DHT22;11991;57.150;-2.134;2023-04-03T14:26:17;9.10;99.90
23629;DHT22;11991;57.150;-2.134;2023-04-03T14:28:46;9.10;99.90
23629;DHT22;11991;57.150;-2.134;2023-04-03T14:31:14;9.10;99.90
23629;DHT22;11991;57.150;-2.134;2023-04-03T14:33:43;9.20;99.90
23629;DHT22;11991;57.150;-2.134;2023-04-03T14:36:15;9.20;99.90
23629;DHT22;11991;57.150;-2.134;2023-04-03T14:38:43;9.30;99.90
23629;DHT22;11991;57.150;-2.134;2023-04-03T14:41:16;9.30;99.90
23629;DHT22;11991;57.150;-2.134;2023-04-03T14:43:45;9.40;99.90
23629;DHT22;11991;57.150;-2.134;2023-04-03T14:46:18;9.40;99.90
23629;DHT22;11991;57.150;-2.134;2023-04-03T14:48:47;9.50;99.90
23629;DHT22;11991;57.150;-2.134;2023-04-03T14:51:15;9.40;99.90
23629;DHT22;11991;57.150;-2.134;2023-04-03T14:53:43;9.40;99.90
23629;DHT22;11991;57.150;-2.134;2023-04-03T14:56:31;9.50;99.90
23629;DHT22;11991;57.150;-2.134;2023-04-03T14:59:00;9.50;99.90
23629;DHT22;11991;57.150;-2.134;2023-04-03T15:01:30;9.50;99.90
23629;DHT22;11991;57.150;-2.134;2023-04-03T15:03:57;9.50;99.90
23629;DHT22;11991;57.150;-2.134;2023-04-03T15:06:25;9.40;99.90
23629;DHT22;11991;57.150;-2.134;2023-04-03T15:08:52;9.40;99.90
23629;DHT22;11991;57.150;-2.134;2023-04-03T15:11:20;9.40;99.90
23629;DHT22;11991;57.150;-2.134;2023-04-03T15:13:47;9.50;99.90
23629;DHT22;11991;57.150;-2.134;2023-04-03T15:16:19;9.50;99.90
23629;DHT22;11991;57.150;-2.134;2023-04-03T15:18:48;9.50;99.90
23629;DHT22;11991;57.150;-2.134;2023-04-03T15:21:15;9.50;99.90
23629;DHT22;11991;57.150;-2.134;2023-04-03T15:23:43;9.50;99.90
23629;DHT22;11991;57.150;-2.134;2023-04-03T15:26:10;9.50;99.90
23629;DHT22;11991;57.150;-2.134;2023-04-03T15:28:40;9.40;99.90
23629;DHT22;11991;57.150;-2.134;2023-04-03T15:31:09;9.50;99.90
23629;DHT22;11991;57.150;-2.134;2023-04-03T15:33:37;9.50;99.90
23629;DHT22;11991;57.150;-2.134;2023-04-03T15:36:04;9.60;99.90
23629;DHT22;11991;57.150;-2.134;2023-04-03T15:38:37;9.60;99.90
23629;DHT22;11991;57.150;-2.134;2023-04-03T15:41:05;9.70;99.90
23629;DHT22;11991;57.150;-2.134;2023-04-03T15:43:32;9.80;99.90
23629;DHT22;11991;57.150;-2.134;2023-04-03T15:46:01;9.80;99.90
23629;DHT22;11991;57.150;-2.134;2023-04-03T15:48:29;9.80;99.90
23629;DHT22;11991;57.150;-2.134;2023-04-03T15:50:57;9.80;99.90
23629;DHT22;11991;57.150;-2.134;2023-04-03T15:53:25;9.90;99.90
23629;DHT22;11991;57.150;-2.134;2023-04-03T15:55:52;9.90;99.90
23629;DHT22;11991;57.150;-2.134;2023-04-03T15:58:19;9.80;99.90
23629;DHT22;11991;57.150;-2.134;2023-04-03T16:00:47;9.70;99.90
23629;DHT22;11991;57.150;-2.134;2023-04-03T16:03:19;9.70;99.90
23629;DHT22;11991;57.150;-2.134;2023-04-03T16:05:47;9.70;99.90
23629;DHT22;11991;57.150;-2.134;2023-04-03T16:08:14;9.80;99.90
23629;DHT22;11991;57.150;-2.134;2023-04-03T16:10:43;9.80;99.90
23629;DHT22;11991;57.150;-2.134;2023-04-03T16:13:12;9.80;99.90
23629;DHT22;11991;57.150;-2.134;2023-04-03T16:15:40;9.80;99.90
23629;DHT22;11991;57.150;-2.134;2023-04-03T16:18:07;9.80;99.90
23629;DHT22;11991;57.150;-2.134;2023-04-03T16:20:35;9.80;99.90
23629;DHT22;11991;57.150;-2.134;2023-04-03T16:23:03;9.70;99.90
23629;DHT22;11991;57.150;-2.134;2023-04-03T16:25:31;9.70;99.90
23629;DHT22;11991;57.150;-2.134;2023-04-03T16:27:59;9.60;99.90
23629;DHT22;11991;57.150;-2.134;2023-04-03T16:30:26;9.50;99.90
23629;DHT22;11991;57.150;-2.134;2023-04-03T16:32:53;9.50;99.90
23629;DHT22;11991;57.150;-2.134;2023-04-03T16:35:22;9.40;99.90
23629;DHT22;11991;57.150;-2.134;2023-04-03T16:37:50;9.40;99.90
23629;DHT22;11991;57.150;-2.134;2023-04-03T16:40:17;9.50;99.90
23629;DHT22;11991;57.150;-2.134;2023-04-03T16:42:45;9.40;99.90
23629;DHT22;11991;57.150;-2.134;2023-04-03T16:45:16;9.40;99.90
23629;DHT22;11991;57.150;-2.134;2023-04-03T16:47:43;9.30;99.90
23629;DHT22;11991;57.150;-2.134;2023-04-03T16:50:25;9.30;99.90
23629;DHT22;11991;57.150;-2.134;2023-04-03T16:52:53;9.20;99.90
23629;DHT22;11991;57.150;-2.134;2023-04-03T16:55:49;9.10;99.90
23629;DHT22;11991;57.150;-2.134;2023-04-03T16:58:17;9.10;99.90
23629;DHT22;11991;57.150;-2.134;2023-04-03T17:00:44;9.00;99.90
23629;DHT22;11991;57.150;-2.134;2023-04-03T17:03:11;8.90;99.90
23629;DHT22;11991;57.150;-2.134;2023-04-03T17:05:38;8.80;99.90
23629;DHT22;11991;57.150;-2.134;2023-04-03T17:08:05;8.80;99.90
23629;DHT22;11991;57.150;-2.134;2023-04-03T17:10:33;8.70;99.90
23629;DHT22;11991;57.150;-2.134;2023-04-03T17:13:02;8.60;99.90
23629;DHT22;11991;57.150;-2.134;2023-04-03T17:15:30;8.50;99.90
23629;DHT22;11991;57.150;-2.134;2023-04-03T17:17:57;8.50;99.90
23629;DHT22;11991;57.150;-2.134;2023-04-03T17:20:24;8.40;99.90
23629;DHT22;11991;57.150;-2.134;2023-04-03T17:22:52;8.40;99.90
23629;DHT22;11991;57.150;-2.134;2023-04-03T17:25:19;8.40;99.90
23629;DHT22;11991;57.150;-2.134;2023-04-03T17:27:46;8.40;99.90
23629;DHT22;11991;57.150;-2.134;2023-04-03T17:30:14;8.30;99.90
23629;DHT22;11991;57.150;-2.134;2023-04-03T17:32:42;8.30;99.90
23629;DHT22;11991;57.150;-2.134;2023-04-03T17:35:10;8.20;99.90
23629;DHT22;11991;57.150;-2.134;2023-04-03T17:37:38;8.20;99.90
23629;DHT22;11991;57.150;-2.134;2023-04-03T17:40:05;8.10;99.90
23629;DHT22;11991;57.150;-2.134;2023-04-03T17:42:33;8.00;99.90
23629;DHT22;11991;57.150;-2.134;2023-04-03T17:45:00;8.00;99.90
23629;DHT22;11991;57.150;-2.134;2023-04-03T17:47:27;8.00;99.90
23629;DHT22;11991;57.150;-2.134;2023-04-03T17:49:54;8.00;99.90
23629;DHT22;11991;57.150;-2.134;2023-04-03T17:52:22;8.00;99.90
23629;DHT22;11991;57.150;-2.134;2023-04-03T17:54:51;8.00;99.90
23629;DHT22;11991;57.150;-2.134;2023-04-03T17:57:18;7.90;99.90
23629;DHT22;11991;57.150;-2.134;2023-04-03T17:59:45;7.90;99.90